Canyondam, California
Current Conditions -  °F | °C
As of 12:55 AM on Saturday 29 Nov 2014 (Local Time) from KCIC Reporting Station
Overcast Overcast  
Wind Chill: 54°   Ceiling: 2700
Heat Index: 54°   Visibility: 10mi
Dew Point: 46°   Wind: 18mph
Humidity: 77%   Direction: 130°SE
Pressure: 29.82"   Gusts: 24mph
Location:  40.1828°N, 121.1496°W
Report Text: KCIC 290855Z AUTO 13016G21KT 10SM OVC027 12/08 A2982 RMK AO1
Loading
Personal Weather Stations






























Interactive Weather Map New forecast layout! Learn more

10-Day Weather Forecast

Advertisements
Track Severe Weather on mobile